Time;durP1;ratioP1;P1;durP2;ratioP2;P2;SDS_P1;SDS_P2;PMS_P1;PMS_P2;Temp;Humidity;BMP_temperature;BMP_pressure;BME280_temperature;BME280_humidity;BME280_pressure;Samples;Min_cycle;Max_cycle;Signal;HPM_P1;HPM_P2
2023/07/18 00:00:29;;;;;;;7.30;2.97;;;;;;;;;;5074311;28;20099;-75
2023/07/18 00:02:54;;;;;;;4.18;2.60;;;;;;;;;;5056726;28;20052;-74
2023/07/18 00:05:21;;;;;;;9.07;3.47;;;;;;;;;;5056131;28;20077;-75
2023/07/18 00:07:46;;;;;;;5.07;2.53;;;;;;;;;;5060311;28;20032;-74
2023/07/18 00:10:12;;;;;;;5.38;2.60;;;;;;;;;;5054144;28;20102;-74
2023/07/18 00:12:38;;;;;;;4.82;2.85;;;;;;;;;;5042213;28;20434;-74
2023/07/18 00:15:05;;;;;;;6.80;2.40;;;;;;;;;;5067338;28;20023;-75
2023/07/18 00:17:31;;;;;;;6.15;2.28;;;;;;;;;;5055610;28;20028;-74
2023/07/18 00:19:58;;;;;;;6.55;2.65;;;;;;;;;;5056363;28;20039;-74
2023/07/18 00:22:23;;;;;;;11.30;3.20;;;;;;;;;;5056216;28;20025;-74
2023/07/18 00:24:49;;;;;;;11.35;2.90;;;;;;;;;;5073755;28;20030;-74
2023/07/18 00:27:16;;;;;;;5.93;2.25;;;;;;;;;;5055990;28;20123;-74
2023/07/18 00:29:42;;;;;;;6.57;3.15;;;;;;;;;;5073250;28;20024;-74
2023/07/18 00:32:07;;;;;;;7.97;2.85;;;;;;;;;;5071346;28;20035;-75
2023/07/18 00:34:32;;;;;;;5.88;3.03;;;;;;;;;;5055899;28;20021;-74
2023/07/18 00:36:57;;;;;;;7.82;2.45;;;;;;;;;;5051790;28;20034;-74
2023/07/18 00:39:23;;;;;;;10.43;3.30;;;;;;;;;;5035189;28;20027;-74
2023/07/18 00:41:49;;;;;;;7.82;2.53;;;;;;;;;;5035061;28;20401;-74
2023/07/18 00:44:14;;;;;;;5.93;2.42;;;;;;;;;;5052131;28;20047;-74
2023/07/18 00:46:39;;;;;;;9.07;3.03;;;;;;;;;;5055533;28;20030;-75
2023/07/18 00:49:05;;;;;;;5.57;2.28;;;;;;;;;;5055457;28;20393;-74
2023/07/18 00:51:30;;;;;;;6.97;2.80;;;;;;;;;;5055926;28;20016;-74
2023/07/18 00:53:56;;;;;;;6.28;2.60;;;;;;;;;;5055319;28;20025;-75
2023/07/18 00:56:22;;;;;;;8.23;2.58;;;;;;;;;;5055152;28;20107;-74
2023/07/18 00:58:48;;;;;;;5.30;2.17;;;;;;;;;;5073290;28;20032;-74
2023/07/18 01:01:13;;;;;;;5.32;2.30;;;;;;;;;;5051713;28;20430;-75
2023/07/18 01:03:38;;;;;;;5.32;3.13;;;;;;;;;;5063132;28;20077;-75
2023/07/18 01:06:07;;;;;;;7.05;2.45;;;;;;;;;;5072910;28;20025;-75
2023/07/18 01:08:33;;;;;;;5.22;2.90;;;;;;;;;;5054598;28;20020;-75
2023/07/18 01:10:58;;;;;;;5.38;2.88;;;;;;;;;;5073066;28;20417;-75
2023/07/18 01:13:23;;;;;;;3.63;2.17;;;;;;;;;;5038649;28;20047;-75
2023/07/18 01:15:49;;;;;;;7.03;2.53;;;;;;;;;;5055147;28;20466;-75
2023/07/18 01:18:14;;;;;;;12.38;3.13;;;;;;;;;;5054593;28;20073;-75
2023/07/18 01:20:40;;;;;;;7.63;2.72;;;;;;;;;;5038688;28;20496;-74
2023/07/18 01:23:06;;;;;;;7.45;2.28;;;;;;;;;;5073270;28;20025;-74
2023/07/18 01:25:33;;;;;;;4.70;3.28;;;;;;;;;;5054401;28;20531;-75
2023/07/18 01:27:59;;;;;;;6.60;2.83;;;;;;;;;;5055515;28;20392;-74
2023/07/18 01:30:25;;;;;;;6.35;2.55;;;;;;;;;;5055192;28;20036;-75
2023/07/18 01:32:52;;;;;;;5.15;2.17;;;;;;;;;;5054719;28;20024;-74
2023/07/18 01:35:19;;;;;;;10.50;2.88;;;;;;;;;;5072302;28;20048;-75
2023/07/18 01:37:45;;;;;;;9.00;3.05;;;;;;;;;;5055139;28;20101;-74
2023/07/18 01:40:12;;;;;;;6.75;3.50;;;;;;;;;;5072954;28;20024;-74
2023/07/18 01:42:38;;;;;;;6.63;2.70;;;;;;;;;;5055083;28;20099;-74
2023/07/18 01:45:04;;;;;;;5.25;2.80;;;;;;;;;;5055218;28;20128;-74
2023/07/18 01:47:31;;;;;;;5.32;2.42;;;;;;;;;;5072352;28;20099;-75
2023/07/18 01:49:57;;;;;;;4.72;2.85;;;;;;;;;;5055206;28;20074;-74
2023/07/18 01:52:23;;;;;;;5.78;2.40;;;;;;;;;;5055075;28;20062;-74
2023/07/18 01:54:48;;;;;;;5.32;2.63;;;;;;;;;;5072844;28;20476;-75
2023/07/18 01:57:13;;;;;;;5.10;2.88;;;;;;;;;;5072845;28;20047;-75
2023/07/18 01:59:38;;;;;;;4.38;2.67;;;;;;;;;;5054698;28;20021;-75
2023/07/18 02:02:06;;;;;;;7.55;2.78;;;;;;;;;;5054098;28;20469;-75
2023/07/18 02:04:32;;;;;;;7.18;3.03;;;;;;;;;;5054907;28;20024;-75
2023/07/18 02:06:57;;;;;;;4.88;2.65;;;;;;;;;;5037936;28;20029;-74
2023/07/18 02:09:23;;;;;;;5.18;2.78;;;;;;;;;;5125925;23;20037;-69
2023/07/18 02:11:48;;;;;;;5.38;2.65;;;;;;;;;;5076344;28;20477;-69
2023/07/18 02:14:19;;;;;;;7.82;3.50;;;;;;;;;;5092714;28;20039;-69
2023/07/18 02:16:44;;;;;;;7.05;2.17;;;;;;;;;;5067212;28;20035;-69
2023/07/18 02:19:09;;;;;;;7.68;2.95;;;;;;;;;;5061103;28;20100;-70
2023/07/18 02:21:35;;;;;;;6.20;3.03;;;;;;;;;;5086364;28;20108;-69
2023/07/18 02:24:00;;;;;;;3.30;2.00;;;;;;;;;;5072217;28;20466;-69
2023/07/18 02:26:26;;;;;;;9.88;2.63;;;;;;;;;;5072357;28;20028;-69
2023/07/18 02:28:51;;;;;;;5.30;2.75;;;;;;;;;;5072502;28;20107;-69
2023/07/18 02:31:16;;;;;;;7.15;2.67;;;;;;;;;;5072464;28;20016;-69
2023/07/18 02:33:42;;;;;;;7.75;3.00;;;;;;;;;;5072519;28;20075;-69
2023/07/18 02:36:08;;;;;;;6.10;2.17;;;;;;;;;;5072346;28;20020;-69
2023/07/18 02:38:33;;;;;;;5.43;2.72;;;;;;;;;;5053891;28;20028;-69
2023/07/18 02:40:59;;;;;;;4.88;2.55;;;;;;;;;;5072873;28;20393;-69
2023/07/18 02:43:24;;;;;;;4.35;2.40;;;;;;;;;;5072506;28;20090;-69
2023/07/18 02:45:49;;;;;;;6.18;2.35;;;;;;;;;;5076476;28;20031;-69
2023/07/18 02:48:15;;;;;;;9.00;2.80;;;;;;;;;;5075965;28;20099;-69
2023/07/18 02:50:40;;;;;;;5.50;2.28;;;;;;;;;;5075478;28;20035;-69
2023/07/18 02:53:05;;;;;;;6.10;2.72;;;;;;;;;;5075834;28;20025;-69
2023/07/18 02:55:31;;;;;;;7.57;2.47;;;;;;;;;;5076175;28;20028;-70
2023/07/18 02:57:56;;;;;;;5.45;3.03;;;;;;;;;;5075800;28;20016;-69
2023/07/18 03:00:25;;;;;;;5.18;3.35;;;;;;;;;;5057857;28;20061;-69
2023/07/18 03:02:51;;;;;;;5.65;3.00;;;;;;;;;;5075624;28;20016;-69
2023/07/18 03:05:17;;;;;;;4.60;2.65;;;;;;;;;;5075033;28;20028;-69
2023/07/18 03:07:43;;;;;;;6.93;2.88;;;;;;;;;;5057539;28;20064;-69
2023/07/18 03:10:08;;;;;;;6.22;2.17;;;;;;;;;;5075377;28;20507;-69
2023/07/18 03:12:34;;;;;;;6.50;2.25;;;;;;;;;;5076169;28;20037;-69
2023/07/18 03:14:59;;;;;;;6.50;2.70;;;;;;;;;;5095559;28;20013;-69
2023/07/18 03:17:24;;;;;;;5.57;2.45;;;;;;;;;;5095565;28;20514;-69
2023/07/18 03:19:50;;;;;;;6.50;2.55;;;;;;;;;;5088538;28;20031;-69
2023/07/18 03:22:15;;;;;;;7.55;2.78;;;;;;;;;;5075435;28;20024;-70
2023/07/18 03:24:40;;;;;;;5.82;2.58;;;;;;;;;;5074723;28;20482;-69
2023/07/18 03:27:06;;;;;;;6.60;2.47;;;;;;;;;;5075280;28;20028;-69
2023/07/18 03:29:31;;;;;;;4.38;2.72;;;;;;;;;;5074536;28;20234;-69
2023/07/18 03:31:59;;;;;;;4.03;2.65;;;;;;;;;;5075189;28;20040;-69
2023/07/18 03:34:24;;;;;;;4.72;2.53;;;;;;;;;;5074623;28;20040;-69
2023/07/18 03:36:50;;;;;;;5.20;2.67;;;;;;;;;;5056875;28;20504;-69
2023/07/18 03:39:15;;;;;;;3.30;2.15;;;;;;;;;;5057065;28;20497;-69
2023/07/18 03:41:41;;;;;;;4.93;2.60;;;;;;;;;;5075030;28;20032;-69
2023/07/18 03:44:07;;;;;;;4.13;2.53;;;;;;;;;;5074651;28;20021;-69
2023/07/18 03:46:32;;;;;;;4.35;3.03;;;;;;;;;;5074806;28;20021;-69
2023/07/18 03:48:57;;;;;;;4.75;2.47;;;;;;;;;;5075116;28;20020;-69
2023/07/18 03:51:22;;;;;;;4.47;2.08;;;;;;;;;;5074278;28;20465;-69
2023/07/18 03:53:48;;;;;;;4.80;2.55;;;;;;;;;;5074797;28;20099;-69
2023/07/18 03:56:15;;;;;;;4.07;2.80;;;;;;;;;;5074732;28;20491;-69
2023/07/18 03:58:40;;;;;;;4.35;2.40;;;;;;;;;;5078903;28;20024;-69
2023/07/18 04:01:07;;;;;;;5.32;2.72;;;;;;;;;;5095145;28;20028;-69
2023/07/18 04:03:33;;;;;;;4.03;3.10;;;;;;;;;;5077418;28;20443;-69
2023/07/18 04:05:58;;;;;;;4.32;2.58;;;;;;;;;;5087872;28;20028;-69
2023/07/18 04:08:23;;;;;;;3.80;2.25;;;;;;;;;;5074401;28;20031;-69
2023/07/18 04:10:49;;;;;;;5.80;2.70;;;;;;;;;;5074120;28;20024;-69
2023/07/18 04:13:14;;;;;;;4.90;2.38;;;;;;;;;;5074237;28;20024;-69
2023/07/18 04:15:40;;;;;;;6.22;3.22;;;;;;;;;;5056445;28;20477;-69
2023/07/18 04:18:05;;;;;;;6.50;3.03;;;;;;;;;;5055818;28;20164;-69
2023/07/18 04:20:31;;;;;;;7.20;3.35;;;;;;;;;;5074125;28;20444;-69
2023/07/18 04:22:57;;;;;;;5.25;2.78;;;;;;;;;;5074336;28;20417;-69
2023/07/18 04:25:23;;;;;;;5.32;2.97;;;;;;;;;;5074066;28;20028;-69
2023/07/18 04:27:48;;;;;;;7.05;2.80;;;;;;;;;;5073528;28;20414;-69
2023/07/18 04:30:14;;;;;;;4.70;2.78;;;;;;;;;;5073975;28;20537;-69
2023/07/18 04:32:41;;;;;;;7.55;3.08;;;;;;;;;;5073927;28;20126;-69
2023/07/18 04:35:07;;;;;;;4.63;2.30;;;;;;;;;;5056437;28;20020;-69
2023/07/18 04:37:33;;;;;;;5.20;3.10;;;;;;;;;;5055376;28;20020;-69
2023/07/18 04:39:58;;;;;;;9.30;2.53;;;;;;;;;;5073635;28;20081;-69
2023/07/18 04:42:23;;;;;;;5.75;3.35;;;;;;;;;;5073780;28;20024;-69
2023/07/18 04:44:49;;;;;;;8.10;2.65;;;;;;;;;;5073680;28;20024;-69
2023/07/18 04:47:14;;;;;;;5.45;2.58;;;;;;;;;;5074158;28;20032;-69
2023/07/18 04:49:39;;;;;;;5.07;2.92;;;;;;;;;;5093711;28;20081;-69
2023/07/18 04:52:05;;;;;;;5.38;2.60;;;;;;;;;;5093987;28;20425;-69
2023/07/18 04:54:30;;;;;;;8.07;2.30;;;;;;;;;;5093613;28;20020;-69
2023/07/18 04:56:56;;;;;;;6.47;2.65;;;;;;;;;;5093641;28;20362;-69
2023/07/18 04:59:21;;;;;;;6.90;2.25;;;;;;;;;;5093186;28;20059;-69
2023/07/18 05:01:51;;;;;;;4.82;2.30;;;;;;;;;;5075568;28;20047;-69
2023/07/18 05:04:16;;;;;;;6.40;2.88;;;;;;;;;;5093699;28;20393;-69
2023/07/18 05:06:42;;;;;;;5.63;2.10;;;;;;;;;;5092883;28;20032;-69
2023/07/18 05:09:08;;;;;;;6.32;2.85;;;;;;;;;;5083685;28;20500;-69
2023/07/18 05:11:33;;;;;;;7.82;2.63;;;;;;;;;;5065586;28;20078;-69
2023/07/18 05:13:58;;;;;;;4.68;2.08;;;;;;;;;;5053426;28;20021;-69
2023/07/18 05:16:24;;;;;;;5.63;2.20;;;;;;;;;;5053950;28;20466;-69
2023/07/18 05:18:49;;;;;;;5.03;2.20;;;;;;;;;;5072625;28;20029;-69
2023/07/18 05:21:14;;;;;;;6.82;2.03;;;;;;;;;;5072469;28;20024;-69
2023/07/18 05:23:40;;;;;;;4.78;2.05;;;;;;;;;;5073112;28;20032;-69
2023/07/18 05:26:08;;;;;;;5.63;2.03;;;;;;;;;;5073331;28;20045;-69
2023/07/18 05:28:33;;;;;;;5.43;1.92;;;;;;;;;;5073049;28;20103;-69
2023/07/18 05:31:05;;;;;;;5.50;2.03;;;;;;;;;;5055572;28;20056;-69
2023/07/18 05:33:31;;;;;;;3.88;2.70;;;;;;;;;;5071275;28;20021;-69
2023/07/18 05:35:56;;;;;;;6.93;2.72;;;;;;;;;;5072895;28;20027;-69
2023/07/18 05:38:21;;;;;;;7.00;1.80;;;;;;;;;;5073208;28;20156;-69
2023/07/18 05:40:47;;;;;;;6.65;2.03;;;;;;;;;;5072395;28;20024;-69
2023/07/18 05:43:12;;;;;;;3.20;2.30;;;;;;;;;;5083989;28;20034;-69
2023/07/18 05:45:37;;;;;;;5.32;2.22;;;;;;;;;;5093162;28;20027;-69
2023/07/18 05:48:03;;;;;;;6.55;2.65;;;;;;;;;;5092969;28;20103;-69
2023/07/18 05:50:28;;;;;;;4.72;1.80;;;;;;;;;;5093208;28;20054;-69
2023/07/18 05:52:54;;;;;;;4.10;1.58;;;;;;;;;;5092515;28;20039;-69
2023/07/18 05:55:19;;;;;;;3.35;1.75;;;;;;;;;;5093057;28;20047;-69
2023/07/18 05:57:44;;;;;;;4.32;1.58;;;;;;;;;;5090453;28;20107;-69
2023/07/18 06:00:11;;;;;;;5.10;2.17;;;;;;;;;;5072679;28;20074;-69
2023/07/18 06:02:36;;;;;;;4.00;1.65;;;;;;;;;;5072477;28;20066;-69
2023/07/18 06:05:02;;;;;;;3.42;1.90;;;;;;;;;;5072968;28;20098;-69
2023/07/18 06:07:27;;;;;;;4.75;1.50;;;;;;;;;;5072552;28;20016;-69
2023/07/18 06:09:52;;;;;;;3.80;2.08;;;;;;;;;;5072541;28;20024;-69
2023/07/18 06:12:18;;;;;;;2.85;1.63;;;;;;;;;;5054392;28;20095;-69
2023/07/18 06:14:43;;;;;;;4.70;2.03;;;;;;;;;;5071823;28;20158;-69
2023/07/18 06:17:08;;;;;;;5.45;2.40;;;;;;;;;;5072433;28;20025;-69
2023/07/18 06:19:34;;;;;;;3.38;1.77;;;;;;;;;;5076059;28;20042;-69
2023/07/18 06:21:59;;;;;;;4.50;1.63;;;;;;;;;;5076343;28;20028;-69
2023/07/18 06:24:24;;;;;;;5.40;1.70;;;;;;;;;;5076057;28;20070;-70
2023/07/18 06:26:50;;;;;;;8.35;1.83;;;;;;;;;;5076041;28;20028;-71
2023/07/18 06:29:19;;;;;;;5.15;1.73;;;;;;;;;;5084829;28;20103;-71
2023/07/18 06:31:45;;;;;;;5.43;2.22;;;;;;;;;;5079908;28;20035;-71
2023/07/18 06:34:11;;;;;;;4.30;1.60;;;;;;;;;;5096045;28;20570;-71
2023/07/18 06:36:36;;;;;;;3.28;1.65;;;;;;;;;;5095855;28;20024;-71
2023/07/18 06:39:01;;;;;;;3.22;1.50;;;;;;;;;;5096177;28;20507;-71
2023/07/18 06:41:27;;;;;;;4.53;1.90;;;;;;;;;;5078405;28;20393;-70
2023/07/18 06:43:52;;;;;;;2.90;1.45;;;;;;;;;;5076139;28;20115;-71
2023/07/18 06:46:17;;;;;;;5.10;1.60;;;;;;;;;;5075909;28;20024;-71
2023/07/18 06:48:42;;;;;;;4.63;1.80;;;;;;;;;;5058076;28;20478;-71
2023/07/18 06:51:08;;;;;;;4.55;1.67;;;;;;;;;;5057405;28;20107;-71
2023/07/18 06:53:33;;;;;;;3.85;1.85;;;;;;;;;;5075867;28;20139;-71
2023/07/18 06:55:58;;;;;;;3.50;1.98;;;;;;;;;;5075607;28;20138;-71
2023/07/18 06:58:24;;;;;;;5.20;1.65;;;;;;;;;;5081305;28;20020;-71
2023/07/18 07:00:50;;;;;;;4.20;1.48;;;;;;;;;;5095695;28;20028;-71
2023/07/18 07:03:15;;;;;;;2.63;1.63;;;;;;;;;;5096048;28;20480;-71
2023/07/18 07:05:42;;;;;;;4.53;1.77;;;;;;;;;;5077199;28;20110;-71
2023/07/18 07:08:12;;;;;;;4.18;1.50;;;;;;;;;;5096004;28;20047;-71
2023/07/18 07:10:41;;;;;;;3.70;1.48;;;;;;;;;;5070822;28;20478;-71
2023/07/18 07:13:07;;;;;;;4.07;1.83;;;;;;;;;;5075483;28;20039;-71
2023/07/18 07:15:33;;;;;;;4.05;2.00;;;;;;;;;;5057660;28;20020;-71
2023/07/18 07:17:59;;;;;;;4.78;1.55;;;;;;;;;;5068244;28;20027;-71
2023/07/18 07:20:25;;;;;;;1.95;1.48;;;;;;;;;;5076935;28;20103;-71
2023/07/18 07:22:52;;;;;;;4.18;1.27;;;;;;;;;;5093872;28;20026;-70
2023/07/18 07:25:19;;;;;;;4.57;1.42;;;;;;;;;;5075307;28;20109;-71
2023/07/18 07:27:44;;;;;;;2.47;1.30;;;;;;;;;;5057094;28;20496;-70
2023/07/18 07:30:15;;;;;;;4.25;1.73;;;;;;;;;;5074516;28;20043;-71
2023/07/18 07:32:43;;;;;;;4.07;2.20;;;;;;;;;;5074623;28;20123;-71
2023/07/18 07:35:09;;;;;;;3.92;1.50;;;;;;;;;;5057035;28;20091;-71
2023/07/18 07:37:34;;;;;;;5.03;1.73;;;;;;;;;;5075119;28;20183;-71
2023/07/18 07:39:59;;;;;;;3.88;1.65;;;;;;;;;;5074983;28;20085;-71
2023/07/18 07:42:25;;;;;;;2.97;1.33;;;;;;;;;;5074521;28;20477;-71
2023/07/18 07:44:50;;;;;;;6.78;1.58;;;;;;;;;;5074845;28;20024;-71
2023/07/18 07:47:15;;;;;;;3.28;1.63;;;;;;;;;;5073877;28;20059;-71
2023/07/18 07:49:41;;;;;;;3.88;1.30;;;;;;;;;;5074827;28;20020;-71
2023/07/18 07:52:06;;;;;;;3.72;1.58;;;;;;;;;;5074548;28;20028;-71
2023/07/18 07:54:32;;;;;;;3.42;1.58;;;;;;;;;;5093298;28;20024;-71
2023/07/18 07:56:57;;;;;;;3.92;1.20;;;;;;;;;;5094550;28;20020;-71
2023/07/18 07:59:22;;;;;;;4.47;1.42;;;;;;;;;;5094454;28;20031;-71
2023/07/18 08:01:48;;;;;;;2.80;1.48;;;;;;;;;;5094554;28;20020;-71
2023/07/18 08:04:13;;;;;;;4.63;1.80;;;;;;;;;;5094404;28;20465;-71
2023/07/18 08:06:39;;;;;;;1.90;1.30;;;;;;;;;;5093684;28;20093;-71
2023/07/18 08:09:04;;;;;;;3.40;1.55;;;;;;;;;;5094355;28;20032;-70
2023/07/18 08:11:30;;;;;;;2.83;1.45;;;;;;;;;;5093608;28;20032;-70
2023/07/18 08:13:56;;;;;;;6.72;1.73;;;;;;;;;;5094609;28;20057;-71
2023/07/18 08:16:21;;;;;;;5.10;1.63;;;;;;;;;;5094378;28;20027;-71
2023/07/18 08:18:46;;;;;;;2.85;1.33;;;;;;;;;;5094369;28;20026;-69
2023/07/18 08:21:13;;;;;;;4.65;1.50;;;;;;;;;;5084759;28;20032;-69
2023/07/18 08:23:38;;;;;;;1.95;1.20;;;;;;;;;;5056226;28;20039;-69
2023/07/18 08:26:03;;;;;;;3.42;1.63;;;;;;;;;;5073671;28;20025;-70
2023/07/18 08:28:29;;;;;;;5.40;1.67;;;;;;;;;;5074162;28;20093;-70
2023/07/18 08:30:54;;;;;;;2.15;1.30;;;;;;;;;;5073116;28;20047;-69
2023/07/18 08:33:21;;;;;;;2.78;1.70;;;;;;;;;;5089909;28;20031;-69
2023/07/18 08:35:48;;;;;;;3.55;1.83;;;;;;;;;;5093871;28;20042;-70
2023/07/18 08:38:14;;;;;;;2.70;1.30;;;;;;;;;;5075949;28;20030;-70
2023/07/18 08:40:46;;;;;;;3.83;1.52;;;;;;;;;;5075315;28;20020;-69
2023/07/18 08:43:14;;;;;;;2.05;1.63;;;;;;;;;;5075176;28;20436;-70
2023/07/18 08:45:40;;;;;;;4.15;1.67;;;;;;;;;;5093828;28;20059;-70
2023/07/18 08:48:05;;;;;;;2.20;1.33;;;;;;;;;;5075542;28;20015;-70
2023/07/18 08:50:33;;;;;;;4.25;1.33;;;;;;;;;;5075784;28;20496;-70
2023/07/18 08:52:58;;;;;;;4.28;1.58;;;;;;;;;;5093097;28;20542;-69
2023/07/18 08:55:23;;;;;;;2.47;1.58;;;;;;;;;;5093779;28;20024;-69
2023/07/18 08:57:50;;;;;;;4.28;1.67;;;;;;;;;;5093448;28;20024;-69
2023/07/18 09:00:20;;;;;;;3.75;1.30;;;;;;;;;;5093631;28;20024;-69
2023/07/18 09:02:48;;;;;;;3.35;1.63;;;;;;;;;;5075074;28;20512;-69
2023/07/18 09:05:31;;;;;;;5.32;1.73;;;;;;;;;;5052709;28;20108;-69
2023/07/18 09:07:58;;;;;;;3.38;1.45;;;;;;;;;;5049293;28;20108;-69
2023/07/18 09:10:23;;;;;;;3.38;1.33;;;;;;;;;;5052916;28;20029;-69
2023/07/18 09:12:48;;;;;;;3.13;1.90;;;;;;;;;;5077040;28;20428;-69
2023/07/18 09:15:20;;;;;;;3.22;1.67;;;;;;;;;;5086131;28;20020;-69
2023/07/18 09:17:57;;;;;;;2.80;1.30;;;;;;;;;;5093499;28;20024;-68
2023/07/18 09:20:24;;;;;;;3.05;1.38;;;;;;;;;;5093187;28;20105;-69
2023/07/18 09:22:53;;;;;;;3.03;1.60;;;;;;;;;;5075600;28;20026;-69
2023/07/18 09:25:18;;;;;;;3.58;1.42;;;;;;;;;;5070515;28;20017;-69
2023/07/18 09:27:43;;;;;;;2.30;1.60;;;;;;;;;;5073131;28;20195;-69
2023/07/18 09:30:09;;;;;;;4.38;1.40;;;;;;;;;;5072662;28;20056;-69
2023/07/18 09:32:35;;;;;;;3.85;1.33;;;;;;;;;;5077356;28;20082;-69
2023/07/18 09:35:01;;;;;;;1.55;1.20;;;;;;;;;;5092544;28;20024;-69
2023/07/18 09:37:27;;;;;;;2.13;1.33;;;;;;;;;;5076331;28;20052;-69
2023/07/18 09:39:54;;;;;;;3.85;1.63;;;;;;;;;;5072755;28;20024;-69
2023/07/18 09:42:19;;;;;;;2.83;1.20;;;;;;;;;;5087419;28;20412;-69
2023/07/18 09:44:48;;;;;;;3.75;1.70;;;;;;;;;;5092179;28;20037;-68
2023/07/18 09:47:13;;;;;;;3.70;1.42;;;;;;;;;;5061459;28;20032;-69
2023/07/18 09:49:41;;;;;;;3.20;1.13;;;;;;;;;;5053480;28;20070;-69
2023/07/18 09:52:06;;;;;;;3.17;1.35;;;;;;;;;;5052422;28;20027;-69
2023/07/18 09:54:33;;;;;;;4.00;1.58;;;;;;;;;;5058307;28;20028;-69
2023/07/18 09:57:05;;;;;;;2.97;1.35;;;;;;;;;;5076438;28;20505;-69
2023/07/18 09:59:30;;;;;;;2.80;1.92;;;;;;;;;;5076860;28;20481;-69
2023/07/18 10:01:56;;;;;;;2.53;1.15;;;;;;;;;;5076763;28;20150;-69
2023/07/18 10:04:22;;;;;;;3.55;1.48;;;;;;;;;;5059330;28;20389;-69
2023/07/18 10:06:49;;;;;;;2.08;1.38;;;;;;;;;;5076189;28;20020;-69
2023/07/18 10:09:16;;;;;;;3.63;1.23;;;;;;;;;;5075952;28;20109;-69
2023/07/18 10:12:03;;;;;;;3.78;1.30;;;;;;;;;;5059115;28;20032;-69
2023/07/18 10:14:41;;;;;;;3.17;1.05;;;;;;;;;;5076919;28;20504;-69
2023/07/18 10:17:06;;;;;;;3.10;1.58;;;;;;;;;;5076388;28;20056;-68
2023/07/18 10:19:46;;;;;;;2.58;1.52;;;;;;;;;;5076860;28;20094;-69
2023/07/18 10:22:11;;;;;;;2.40;1.50;;;;;;;;;;5059035;28;20020;-69
2023/07/18 10:24:36;;;;;;;3.17;1.40;;;;;;;;;;5076360;28;20419;-69
2023/07/18 10:27:08;;;;;;;8.40;1.45;;;;;;;;;;5075844;28;20047;-69
2023/07/18 10:29:41;;;;;;;3.00;1.70;;;;;;;;;;5058676;28;20062;-68
2023/07/18 10:32:10;;;;;;;3.20;1.95;;;;;;;;;;5076578;28;20020;-69
2023/07/18 10:34:39;;;;;;;5.80;1.80;;;;;;;;;;5058658;28;20363;-69
2023/07/18 10:37:07;;;;;;;5.53;2.03;;;;;;;;;;5076419;28;20055;-68
2023/07/18 10:39:43;;;;;;;4.80;1.80;;;;;;;;;;5076044;28;20021;-68
2023/07/18 10:42:20;;;;;;;5.28;1.40;;;;;;;;;;5076417;28;20024;-69
2023/07/18 10:44:45;;;;;;;3.55;1.60;;;;;;;;;;5075998;28;20033;-69
2023/07/18 10:47:20;;;;;;;2.55;1.35;;;;;;;;;;5076060;28;20370;-69
2023/07/18 10:49:47;;;;;;;3.30;1.63;;;;;;;;;;5076230;28;20024;-69
2023/07/18 10:52:12;;;;;;;1.83;1.27;;;;;;;;;;5076194;28;20033;-69
2023/07/18 10:54:43;;;;;;;3.45;1.48;;;;;;;;;;5075413;28;20028;-69
2023/07/18 10:57:09;;;;;;;3.63;1.60;;;;;;;;;;5075877;28;20059;-69
2023/07/18 10:59:36;;;;;;;6.45;1.63;;;;;;;;;;5075969;28;20154;-69
2023/07/18 11:02:02;;;;;;;4.15;2.22;;;;;;;;;;5075725;28;20112;-69
2023/07/18 11:04:28;;;;;;;3.20;1.67;;;;;;;;;;5074941;28;20067;-69
2023/07/18 11:06:54;;;;;;;4.00;1.80;;;;;;;;;;5075657;28;20056;-69
2023/07/18 11:09:19;;;;;;;2.63;1.70;;;;;;;;;;5074965;28;20035;-68
2023/07/18 11:11:44;;;;;;;3.35;1.60;;;;;;;;;;5075615;28;20020;-69
2023/07/18 11:14:10;;;;;;;3.67;2.00;;;;;;;;;;5075609;28;20025;-69
2023/07/18 11:16:36;;;;;;;3.13;1.75;;;;;;;;;;5075723;28;20100;-69
2023/07/18 11:19:02;;;;;;;2.60;1.67;;;;;;;;;;5075472;28;20024;-68
2023/07/18 11:21:28;;;;;;;7.18;1.73;;;;;;;;;;5057345;28;20032;-68
2023/07/18 11:23:54;;;;;;;3.35;1.98;;;;;;;;;;5075363;28;20040;-69
2023/07/18 11:26:19;;;;;;;4.68;1.48;;;;;;;;;;5075500;28;20545;-68
2023/07/18 11:28:52;;;;;;;3.35;1.70;;;;;;;;;;5075556;28;20523;-69
2023/07/18 11:31:30;;;;;;;5.53;1.55;;;;;;;;;;5075523;28;20028;-69
2023/07/18 11:33:57;;;;;;;2.28;1.38;;;;;;;;;;5075495;28;20024;-68
2023/07/18 11:36:27;;;;;;;3.67;1.75;;;;;;;;;;5074662;28;20044;-69
2023/07/18 11:38:53;;;;;;;3.25;1.50;;;;;;;;;;5075092;28;20024;-69
2023/07/18 11:41:34;;;;;;;5.38;1.67;;;;;;;;;;5072959;28;20039;-68
2023/07/18 11:44:04;;;;;;;3.55;1.65;;;;;;;;;;5069672;28;20100;-68
2023/07/18 11:46:36;;;;;;;4.63;1.40;;;;;;;;;;5069176;28;20482;-68
2023/07/18 11:49:02;;;;;;;4.10;1.90;;;;;;;;;;5088187;28;20393;-69
2023/07/18 11:51:27;;;;;;;4.43;1.90;;;;;;;;;;5074876;28;20024;-69
2023/07/18 11:53:53;;;;;;;5.40;1.85;;;;;;;;;;5075011;28;20039;-69
2023/07/18 11:56:19;;;;;;;3.63;1.65;;;;;;;;;;5074981;28;20028;-69
2023/07/18 11:58:44;;;;;;;4.18;1.90;;;;;;;;;;5074005;28;20039;-69
2023/07/18 12:01:09;;;;;;;3.80;2.05;;;;;;;;;;5074692;28;20473;-68
2023/07/18 12:03:36;;;;;;;3.90;1.60;;;;;;;;;;5074528;28;20070;-69
2023/07/18 12:06:01;;;;;;;5.93;2.33;;;;;;;;;;5074762;28;20055;-69
2023/07/18 12:08:27;;;;;;;6.18;2.03;;;;;;;;;;5074449;28;20473;-69
2023/07/18 12:10:52;;;;;;;3.63;1.77;;;;;;;;;;5073797;28;20456;-69
2023/07/18 12:13:18;;;;;;;5.80;1.80;;;;;;;;;;5073956;28;20424;-69
2023/07/18 12:15:43;;;;;;;3.40;1.73;;;;;;;;;;5056210;28;20025;-69
2023/07/18 12:18:09;;;;;;;3.13;1.80;;;;;;;;;;5074115;28;20066;-69
2023/07/18 12:20:34;;;;;;;5.20;1.60;;;;;;;;;;5056009;28;20059;-69
2023/07/18 12:22:59;;;;;;;4.68;1.63;;;;;;;;;;5075081;28;20033;-69
2023/07/18 12:25:30;;;;;;;2.92;1.63;;;;;;;;;;5074031;28;20032;-69
2023/07/18 12:27:55;;;;;;;2.80;1.50;;;;;;;;;;5073425;28;20081;-69
2023/07/18 12:30:21;;;;;;;4.85;2.08;;;;;;;;;;5073995;28;20024;-69
2023/07/18 12:32:46;;;;;;;4.72;1.63;;;;;;;;;;5074020;28;20031;-69
2023/07/18 12:35:12;;;;;;;2.85;1.40;;;;;;;;;;5074002;28;20474;-69
2023/07/18 12:37:38;;;;;;;4.35;1.75;;;;;;;;;;5073414;28;20024;-69
2023/07/18 12:40:03;;;;;;;2.47;1.33;;;;;;;;;;5080023;28;20024;-69
2023/07/18 12:42:29;;;;;;;3.42;1.75;;;;;;;;;;5094039;28;20028;-69
2023/07/18 12:44:54;;;;;;;2.92;1.55;;;;;;;;;;5093939;28;20038;-69
2023/07/18 12:47:19;;;;;;;2.80;1.30;;;;;;;;;;5094028;28;20477;-69
2023/07/18 12:49:45;;;;;;;3.85;1.40;;;;;;;;;;5093734;28;20111;-69
2023/07/18 12:52:11;;;;;;;2.33;1.40;;;;;;;;;;5093804;28;20357;-70
2023/07/18 12:54:36;;;;;;;1.75;1.40;;;;;;;;;;5093806;28;20481;-69
2023/07/18 12:57:01;;;;;;;2.08;1.50;;;;;;;;;;5094439;28;20024;-69
2023/07/18 12:59:30;;;;;;;3.97;1.50;;;;;;;;;;5093900;28;20023;-69
2023/07/18 13:01:55;;;;;;;2.90;1.33;;;;;;;;;;5075476;28;20074;-69
2023/07/18 13:04:21;;;;;;;3.60;1.85;;;;;;;;;;5054066;28;20052;-69
2023/07/18 13:06:46;;;;;;;3.38;1.63;;;;;;;;;;5053226;28;20604;-69
2023/07/18 13:09:11;;;;;;;2.20;1.38;;;;;;;;;;5054771;28;20029;-69
2023/07/18 13:11:36;;;;;;;3.42;1.30;;;;;;;;;;5073384;28;20480;-69
2023/07/18 13:14:02;;;;;;;3.38;1.70;;;;;;;;;;5073335;28;20021;-69
2023/07/18 13:16:27;;;;;;;2.65;1.40;;;;;;;;;;5073411;28;20095;-69
2023/07/18 13:18:53;;;;;;;3.28;1.50;;;;;;;;;;5092265;28;20086;-69
2023/07/18 13:21:18;;;;;;;5.13;1.77;;;;;;;;;;5093341;28;20024;-69
2023/07/18 13:23:43;;;;;;;3.78;1.70;;;;;;;;;;5093351;28;20020;-69
2023/07/18 13:26:12;;;;;;;4.15;1.70;;;;;;;;;;5093273;28;20024;-69
2023/07/18 13:28:37;;;;;;;2.90;1.80;;;;;;;;;;5092876;28;20028;-69
2023/07/18 13:31:03;;;;;;;3.85;1.83;;;;;;;;;;5093344;28;20019;-69
2023/07/18 13:33:28;;;;;;;2.97;1.70;;;;;;;;;;5078181;28;20032;-69
2023/07/18 13:35:53;;;;;;;3.35;1.70;;;;;;;;;;5072657;28;20051;-69
2023/07/18 13:38:18;;;;;;;3.75;1.70;;;;;;;;;;5073120;28;20028;-69
2023/07/18 13:40:44;;;;;;;2.95;1.50;;;;;;;;;;5072946;28;20105;-69
2023/07/18 13:43:09;;;;;;;3.92;1.50;;;;;;;;;;5072987;28;20473;-69
2023/07/18 13:45:34;;;;;;;5.00;1.60;;;;;;;;;;5072872;28;20033;-69
2023/07/18 13:48:00;;;;;;;1.95;1.40;;;;;;;;;;5072670;28;20021;-69
2023/07/18 13:50:25;;;;;;;1.88;1.33;;;;;;;;;;5072777;28;20036;-69
2023/07/18 13:52:51;;;;;;;2.30;1.60;;;;;;;;;;5072943;28;20029;-69
2023/07/18 13:55:18;;;;;;;3.72;1.98;;;;;;;;;;5073194;28;20032;-69
2023/07/18 13:57:43;;;;;;;4.72;1.73;;;;;;;;;;5072287;28;20099;-69
2023/07/18 14:00:09;;;;;;;5.25;1.70;;;;;;;;;;5072648;28;20427;-70
2023/07/18 14:02:34;;;;;;;2.85;1.40;;;;;;;;;;5072519;28;20024;-69
2023/07/18 14:04:59;;;;;;;4.18;1.80;;;;;;;;;;5072839;28;20024;-69
2023/07/18 14:07:25;;;;;;;4.32;1.83;;;;;;;;;;5072175;28;20108;-69
2023/07/18 14:09:50;;;;;;;2.42;1.23;;;;;;;;;;5072141;28;20028;-70
2023/07/18 14:12:15;;;;;;;2.40;1.48;;;;;;;;;;5073169;28;20029;-69
2023/07/18 14:14:40;;;;;;;3.30;1.48;;;;;;;;;;5072737;28;20043;-69
2023/07/18 14:17:06;;;;;;;6.32;1.90;;;;;;;;;;5072712;28;20055;-70
2023/07/18 14:19:31;;;;;;;4.22;1.58;;;;;;;;;;5072550;28;20028;-70
2023/07/18 14:21:56;;;;;;;4.38;1.33;;;;;;;;;;5072122;28;20016;-69
2023/07/18 14:24:22;;;;;;;3.88;1.30;;;;;;;;;;5072667;28;20390;-69
2023/07/18 14:26:47;;;;;;;3.15;1.30;;;;;;;;;;5072453;28;20051;-69
2023/07/18 14:29:12;;;;;;;3.17;1.50;;;;;;;;;;5072500;28;20097;-69
2023/07/18 14:31:38;;;;;;;4.88;1.50;;;;;;;;;;5072618;28;20052;-69
2023/07/18 14:34:04;;;;;;;6.13;2.20;;;;;;;;;;5071716;28;20086;-69
2023/07/18 14:36:29;;;;;;;2.47;1.38;;;;;;;;;;5073052;28;20031;-69